sensor_id;sensor_type;location;lat;lon;timestamp;P1;durP1;ratioP1;P2;durP2;ratioP2
64426;SDS011;50772;51.482;-0.580;2022-08-25T00:02:01;1.58;;;1.48;;
64426;SDS011;50772;51.482;-0.580;2022-08-25T00:04:27;1.42;;;1.42;;
64426;SDS011;50772;51.482;-0.580;2022-08-25T00:06:53;1.42;;;1.33;;
64426;SDS011;50772;51.482;-0.580;2022-08-25T00:09:20;1.30;;;1.25;;
64426;SDS011;50772;51.482;-0.580;2022-08-25T00:11:47;1.25;;;1.20;;
64426;SDS011;50772;51.482;-0.580;2022-08-25T00:14:14;1.10;;;1.10;;
64426;SDS011;50772;51.482;-0.580;2022-08-25T00:16:40;1.10;;;1.10;;
64426;SDS011;50772;51.482;-0.580;2022-08-25T00:19:10;1.10;;;1.10;;
64426;SDS011;50772;51.482;-0.580;2022-08-25T00:21:36;1.33;;;1.23;;
64426;SDS011;50772;51.482;-0.580;2022-08-25T00:24:02;1.55;;;1.45;;
64426;SDS011;50772;51.482;-0.580;2022-08-25T00:26:28;1.65;;;1.40;;
64426;SDS011;50772;51.482;-0.580;2022-08-25T00:28:54;1.50;;;1.50;;
64426;SDS011;50772;51.482;-0.580;2022-08-25T00:31:20;1.40;;;1.30;;
64426;SDS011;50772;51.482;-0.580;2022-08-25T00:33:47;2.95;;;1.55;;
64426;SDS011;50772;51.482;-0.580;2022-08-25T00:36:13;1.63;;;1.63;;
64426;SDS011;50772;51.482;-0.580;2022-08-25T00:38:39;1.50;;;1.50;;
64426;SDS011;50772;51.482;-0.580;2022-08-25T00:41:04;1.40;;;1.40;;
64426;SDS011;50772;51.482;-0.580;2022-08-25T00:46:16;1.42;;;1.42;;
64426;SDS011;50772;51.482;-0.580;2022-08-25T00:48:42;2.20;;;1.73;;
64426;SDS011;50772;51.482;-0.580;2022-08-25T00:51:09;1.70;;;1.60;;
64426;SDS011;50772;51.482;-0.580;2022-08-25T00:53:35;1.85;;;1.75;;
64426;SDS011;50772;51.482;-0.580;2022-08-25T00:56:00;1.42;;;1.33;;
64426;SDS011;50772;51.482;-0.580;2022-08-25T00:58:27;1.35;;;1.35;;
64426;SDS011;50772;51.482;-0.580;2022-08-25T01:00:55;1.30;;;1.30;;
64426;SDS011;50772;51.482;-0.580;2022-08-25T01:03:22;1.08;;;1.08;;
64426;SDS011;50772;51.482;-0.580;2022-08-25T01:05:48;1.13;;;1.13;;
64426;SDS011;50772;51.482;-0.580;2022-08-25T01:08:14;7.53;;;1.20;;
64426;SDS011;50772;51.482;-0.580;2022-08-25T01:10:41;1.10;;;1.10;;
64426;SDS011;50772;51.482;-0.580;2022-08-25T01:13:42;1.00;;;1.00;;
64426;SDS011;50772;51.482;-0.580;2022-08-25T01:15:58;1.00;;;1.00;;
64426;SDS011;50772;51.482;-0.580;2022-08-25T01:18:25;1.08;;;1.08;;
64426;SDS011;50772;51.482;-0.580;2022-08-25T01:20:51;0.90;;;0.90;;
64426;SDS011;50772;51.482;-0.580;2022-08-25T01:23:17;0.90;;;0.90;;
64426;SDS011;50772;51.482;-0.580;2022-08-25T01:28:16;3.75;;;0.85;;
64426;SDS011;50772;51.482;-0.580;2022-08-25T01:30:41;1.00;;;1.00;;
64426;SDS011;50772;51.482;-0.580;2022-08-25T01:33:08;1.00;;;1.00;;
64426;SDS011;50772;51.482;-0.580;2022-08-25T01:35:34;1.10;;;0.95;;
64426;SDS011;50772;51.482;-0.580;2022-08-25T01:38:00;1.30;;;1.20;;
64426;SDS011;50772;51.482;-0.580;2022-08-25T01:40:25;0.70;;;0.70;;
64426;SDS011;50772;51.482;-0.580;2022-08-25T01:43:01;1.00;;;1.00;;
64426;SDS011;50772;51.482;-0.580;2022-08-25T01:45:30;1.00;;;1.00;;
64426;SDS011;50772;51.482;-0.580;2022-08-25T01:47:55;0.93;;;0.93;;
64426;SDS011;50772;51.482;-0.580;2022-08-25T01:50:20;0.90;;;0.90;;
64426;SDS011;50772;51.482;-0.580;2022-08-25T01:52:49;1.13;;;1.13;;
64426;SDS011;50772;51.482;-0.580;2022-08-25T01:55:15;0.90;;;0.90;;
64426;SDS011;50772;51.482;-0.580;2022-08-25T01:57:40;1.00;;;1.00;;
64426;SDS011;50772;51.482;-0.580;2022-08-25T02:00:06;3.57;;;1.30;;
64426;SDS011;50772;51.482;-0.580;2022-08-25T02:02:32;1.00;;;1.00;;
64426;SDS011;50772;51.482;-0.580;2022-08-25T02:04:57;2.03;;;1.10;;
64426;SDS011;50772;51.482;-0.580;2022-08-25T02:07:22;1.10;;;1.10;;
64426;SDS011;50772;51.482;-0.580;2022-08-25T02:09:47;1.90;;;1.00;;
64426;SDS011;50772;51.482;-0.580;2022-08-25T02:12:13;1.10;;;1.10;;
64426;SDS011;50772;51.482;-0.580;2022-08-25T02:14:38;1.00;;;1.00;;
64426;SDS011;50772;51.482;-0.580;2022-08-25T02:17:03;0.93;;;0.93;;
64426;SDS011;50772;51.482;-0.580;2022-08-25T02:19:29;1.05;;;1.00;;
64426;SDS011;50772;51.482;-0.580;2022-08-25T02:21:55;0.90;;;0.90;;
64426;SDS011;50772;51.482;-0.580;2022-08-25T02:24:20;2.10;;;1.10;;
64426;SDS011;50772;51.482;-0.580;2022-08-25T02:26:45;1.00;;;1.00;;
64426;SDS011;50772;51.482;-0.580;2022-08-25T02:29:11;1.02;;;1.02;;
64426;SDS011;50772;51.482;-0.580;2022-08-25T02:31:36;0.85;;;0.85;;
64426;SDS011;50772;51.482;-0.580;2022-08-25T02:34:02;1.00;;;1.00;;
64426;SDS011;50772;51.482;-0.580;2022-08-25T02:36:28;0.90;;;0.90;;
64426;SDS011;50772;51.482;-0.580;2022-08-25T02:38:53;1.10;;;1.00;;
64426;SDS011;50772;51.482;-0.580;2022-08-25T02:41:19;1.65;;;0.95;;
64426;SDS011;50772;51.482;-0.580;2022-08-25T02:43:45;0.88;;;0.88;;
64426;SDS011;50772;51.482;-0.580;2022-08-25T02:46:12;2.22;;;1.10;;
64426;SDS011;50772;51.482;-0.580;2022-08-25T02:48:37;1.15;;;1.15;;
64426;SDS011;50772;51.482;-0.580;2022-08-25T02:51:03;2.90;;;0.90;;
64426;SDS011;50772;51.482;-0.580;2022-08-25T02:53:31;1.23;;;1.00;;
64426;SDS011;50772;51.482;-0.580;2022-08-25T02:55:56;1.10;;;1.10;;
64426;SDS011;50772;51.482;-0.580;2022-08-25T02:58:21;0.80;;;0.80;;
64426;SDS011;50772;51.482;-0.580;2022-08-25T03:00:47;0.95;;;0.95;;
64426;SDS011;50772;51.482;-0.580;2022-08-25T03:03:13;0.90;;;0.90;;
64426;SDS011;50772;51.482;-0.580;2022-08-25T03:05:38;1.05;;;0.95;;
64426;SDS011;50772;51.482;-0.580;2022-08-25T03:08:04;1.00;;;1.00;;
64426;SDS011;50772;51.482;-0.580;2022-08-25T03:10:29;0.80;;;0.80;;
64426;SDS011;50772;51.482;-0.580;2022-08-25T03:12:54;0.90;;;0.90;;
64426;SDS011;50772;51.482;-0.580;2022-08-25T03:15:20;0.87;;;0.87;;
64426;SDS011;50772;51.482;-0.580;2022-08-25T03:17:46;1.10;;;1.10;;
64426;SDS011;50772;51.482;-0.580;2022-08-25T03:20:13;0.77;;;0.77;;
64426;SDS011;50772;51.482;-0.580;2022-08-25T03:22:39;0.93;;;0.93;;
64426;SDS011;50772;51.482;-0.580;2022-08-25T03:25:04;0.90;;;0.90;;
64426;SDS011;50772;51.482;-0.580;2022-08-25T03:27:48;1.10;;;1.10;;
64426;SDS011;50772;51.482;-0.580;2022-08-25T03:30:15;1.00;;;1.00;;
64426;SDS011;50772;51.482;-0.580;2022-08-25T03:32:41;0.98;;;0.98;;
64426;SDS011;50772;51.482;-0.580;2022-08-25T03:35:07;2.25;;;1.23;;
64426;SDS011;50772;51.482;-0.580;2022-08-25T03:37:32;1.20;;;1.20;;
64426;SDS011;50772;51.482;-0.580;2022-08-25T03:39:57;0.93;;;0.93;;
64426;SDS011;50772;51.482;-0.580;2022-08-25T03:42:22;1.70;;;1.60;;
64426;SDS011;50772;51.482;-0.580;2022-08-25T03:44:48;1.40;;;1.40;;
64426;SDS011;50772;51.482;-0.580;2022-08-25T03:47:13;1.60;;;1.60;;
64426;SDS011;50772;51.482;-0.580;2022-08-25T03:49:39;1.58;;;1.50;;
64426;SDS011;50772;51.482;-0.580;2022-08-25T03:52:04;1.90;;;1.80;;
64426;SDS011;50772;51.482;-0.580;2022-08-25T03:54:29;1.57;;;1.57;;
64426;SDS011;50772;51.482;-0.580;2022-08-25T03:56:54;2.17;;;1.80;;
64426;SDS011;50772;51.482;-0.580;2022-08-25T03:59:19;2.00;;;1.63;;
64426;SDS011;50772;51.482;-0.580;2022-08-25T04:01:45;2.17;;;2.08;;
64426;SDS011;50772;51.482;-0.580;2022-08-25T04:04:11;2.10;;;2.00;;
64426;SDS011;50772;51.482;-0.580;2022-08-25T04:06:37;5.47;;;2.50;;
64426;SDS011;50772;51.482;-0.580;2022-08-25T04:09:03;2.28;;;2.17;;
64426;SDS011;50772;51.482;-0.580;2022-08-25T04:11:28;2.42;;;2.25;;
64426;SDS011;50772;51.482;-0.580;2022-08-25T04:13:55;5.30;;;2.73;;
64426;SDS011;50772;51.482;-0.580;2022-08-25T04:16:21;2.95;;;2.75;;
64426;SDS011;50772;51.482;-0.580;2022-08-25T04:18:47;2.45;;;2.25;;
64426;SDS011;50772;51.482;-0.580;2022-08-25T04:21:13;2.80;;;2.60;;
64426;SDS011;50772;51.482;-0.580;2022-08-25T04:23:40;2.88;;;2.42;;
64426;SDS011;50772;51.482;-0.580;2022-08-25T04:26:07;2.97;;;2.78;;
64426;SDS011;50772;51.482;-0.580;2022-08-25T04:28:32;3.15;;;2.85;;
64426;SDS011;50772;51.482;-0.580;2022-08-25T04:30:57;3.33;;;3.00;;
64426;SDS011;50772;51.482;-0.580;2022-08-25T04:33:23;5.10;;;3.53;;
64426;SDS011;50772;51.482;-0.580;2022-08-25T04:35:48;4.07;;;3.83;;
64426;SDS011;50772;51.482;-0.580;2022-08-25T04:38:14;4.63;;;4.43;;
64426;SDS011;50772;51.482;-0.580;2022-08-25T04:40:39;6.40;;;4.37;;
64426;SDS011;50772;51.482;-0.580;2022-08-25T04:43:04;7.07;;;4.50;;
64426;SDS011;50772;51.482;-0.580;2022-08-25T04:45:29;5.20;;;4.77;;
64426;SDS011;50772;51.482;-0.580;2022-08-25T04:47:54;4.67;;;4.27;;
64426;SDS011;50772;51.482;-0.580;2022-08-25T04:50:24;5.10;;;4.57;;
64426;SDS011;50772;51.482;-0.580;2022-08-25T04:52:50;5.45;;;5.00;;
64426;SDS011;50772;51.482;-0.580;2022-08-25T04:55:15;9.93;;;5.97;;
64426;SDS011;50772;51.482;-0.580;2022-08-25T04:57:41;6.07;;;5.57;;
64426;SDS011;50772;51.482;-0.580;2022-08-25T05:00:07;5.80;;;5.30;;
64426;SDS011;50772;51.482;-0.580;2022-08-25T05:02:33;5.95;;;5.55;;
64426;SDS011;50772;51.482;-0.580;2022-08-25T05:04:58;6.83;;;6.17;;
64426;SDS011;50772;51.482;-0.580;2022-08-25T05:07:23;6.82;;;6.10;;
64426;SDS011;50772;51.482;-0.580;2022-08-25T05:09:49;8.90;;;6.18;;
64426;SDS011;50772;51.482;-0.580;2022-08-25T05:12:14;11.93;;;7.00;;
64426;SDS011;50772;51.482;-0.580;2022-08-25T05:14:39;11.27;;;6.70;;
64426;SDS011;50772;51.482;-0.580;2022-08-25T05:17:04;9.97;;;6.40;;
64426;SDS011;50772;51.482;-0.580;2022-08-25T05:19:30;7.20;;;6.65;;
64426;SDS011;50772;51.482;-0.580;2022-08-25T05:21:55;6.90;;;6.23;;
64426;SDS011;50772;51.482;-0.580;2022-08-25T05:24:21;7.23;;;6.73;;
64426;SDS011;50772;51.482;-0.580;2022-08-25T05:26:46;6.70;;;6.10;;
64426;SDS011;50772;51.482;-0.580;2022-08-25T05:29:11;5.90;;;5.50;;
64426;SDS011;50772;51.482;-0.580;2022-08-25T05:31:36;6.93;;;6.30;;
64426;SDS011;50772;51.482;-0.580;2022-08-25T05:34:05;6.07;;;5.68;;
64426;SDS011;50772;51.482;-0.580;2022-08-25T05:36:31;9.38;;;6.32;;
64426;SDS011;50772;51.482;-0.580;2022-08-25T05:38:58;8.13;;;6.45;;
64426;SDS011;50772;51.482;-0.580;2022-08-25T05:41:26;11.05;;;7.13;;
64426;SDS011;50772;51.482;-0.580;2022-08-25T05:43:51;7.05;;;6.43;;
64426;SDS011;50772;51.482;-0.580;2022-08-25T05:46:17;10.53;;;6.67;;
64426;SDS011;50772;51.482;-0.580;2022-08-25T05:48:42;8.18;;;7.00;;
64426;SDS011;50772;51.482;-0.580;2022-08-25T05:51:08;9.55;;;7.03;;
64426;SDS011;50772;51.482;-0.580;2022-08-25T05:53:34;7.78;;;7.07;;
64426;SDS011;50772;51.482;-0.580;2022-08-25T05:55:59;9.30;;;7.03;;
64426;SDS011;50772;51.482;-0.580;2022-08-25T05:58:25;8.18;;;6.88;;
64426;SDS011;50772;51.482;-0.580;2022-08-25T06:00:52;8.05;;;6.72;;
64426;SDS011;50772;51.482;-0.580;2022-08-25T06:03:17;12.07;;;6.80;;
64426;SDS011;50772;51.482;-0.580;2022-08-25T06:05:42;7.80;;;6.87;;
64426;SDS011;50772;51.482;-0.580;2022-08-25T06:08:08;7.63;;;6.90;;
64426;SDS011;50772;51.482;-0.580;2022-08-25T06:10:33;7.83;;;7.07;;
64426;SDS011;50772;51.482;-0.580;2022-08-25T06:12:58;8.40;;;7.07;;
64426;SDS011;50772;51.482;-0.580;2022-08-25T06:15:24;9.23;;;7.32;;
64426;SDS011;50772;51.482;-0.580;2022-08-25T06:17:50;11.10;;;7.55;;
64426;SDS011;50772;51.482;-0.580;2022-08-25T06:20:17;9.50;;;7.43;;
64426;SDS011;50772;51.482;-0.580;2022-08-25T06:22:43;10.20;;;8.05;;
64426;SDS011;50772;51.482;-0.580;2022-08-25T06:25:09;8.60;;;7.97;;
64426;SDS011;50772;51.482;-0.580;2022-08-25T06:27:35;8.30;;;7.60;;
64426;SDS011;50772;51.482;-0.580;2022-08-25T06:30:00;8.07;;;7.30;;
64426;SDS011;50772;51.482;-0.580;2022-08-25T06:32:36;9.00;;;7.47;;
64426;SDS011;50772;51.482;-0.580;2022-08-25T06:35:05;10.90;;;8.30;;
64426;SDS011;50772;51.482;-0.580;2022-08-25T06:37:31;8.27;;;7.63;;
64426;SDS011;50772;51.482;-0.580;2022-08-25T06:39:56;8.10;;;7.47;;
64426;SDS011;50772;51.482;-0.580;2022-08-25T06:42:21;13.93;;;8.57;;
64426;SDS011;50772;51.482;-0.580;2022-08-25T06:44:46;10.00;;;7.70;;
64426;SDS011;50772;51.482;-0.580;2022-08-25T06:47:12;8.77;;;7.87;;
64426;SDS011;50772;51.482;-0.580;2022-08-25T06:49:39;9.48;;;7.78;;
64426;SDS011;50772;51.482;-0.580;2022-08-25T06:52:04;8.40;;;7.63;;
64426;SDS011;50772;51.482;-0.580;2022-08-25T06:54:29;8.37;;;7.67;;
64426;SDS011;50772;51.482;-0.580;2022-08-25T06:56:55;8.37;;;7.67;;
64426;SDS011;50772;51.482;-0.580;2022-08-25T06:59:20;8.27;;;7.30;;
64426;SDS011;50772;51.482;-0.580;2022-08-25T07:01:46;7.57;;;6.87;;
64426;SDS011;50772;51.482;-0.580;2022-08-25T07:04:11;8.52;;;7.68;;
64426;SDS011;50772;51.482;-0.580;2022-08-25T07:06:36;7.93;;;7.32;;
64426;SDS011;50772;51.482;-0.580;2022-08-25T07:09:03;12.47;;;7.87;;
64426;SDS011;50772;51.482;-0.580;2022-08-25T07:11:29;9.52;;;7.35;;
64426;SDS011;50772;51.482;-0.580;2022-08-25T07:13:58;8.87;;;7.83;;
64426;SDS011;50772;51.482;-0.580;2022-08-25T07:16:23;9.37;;;8.23;;
64426;SDS011;50772;51.482;-0.580;2022-08-25T07:18:48;8.43;;;7.57;;
64426;SDS011;50772;51.482;-0.580;2022-08-25T07:21:13;8.57;;;7.87;;
64426;SDS011;50772;51.482;-0.580;2022-08-25T07:23:39;8.93;;;8.13;;
64426;SDS011;50772;51.482;-0.580;2022-08-25T07:26:12;11.10;;;8.13;;
64426;SDS011;50772;51.482;-0.580;2022-08-25T07:28:38;8.38;;;7.53;;
64426;SDS011;50772;51.482;-0.580;2022-08-25T07:31:04;9.52;;;8.45;;
64426;SDS011;50772;51.482;-0.580;2022-08-25T07:33:29;8.75;;;7.85;;
64426;SDS011;50772;51.482;-0.580;2022-08-25T07:35:54;9.13;;;8.20;;
64426;SDS011;50772;51.482;-0.580;2022-08-25T07:38:20;8.55;;;7.57;;
64426;SDS011;50772;51.482;-0.580;2022-08-25T07:40:45;8.70;;;7.57;;
64426;SDS011;50772;51.482;-0.580;2022-08-25T07:43:12;8.45;;;7.65;;
64426;SDS011;50772;51.482;-0.580;2022-08-25T07:45:38;8.40;;;7.50;;
64426;SDS011;50772;51.482;-0.580;2022-08-25T07:48:10;8.57;;;7.63;;
64426;SDS011;50772;51.482;-0.580;2022-08-25T07:50:36;7.65;;;6.93;;
64426;SDS011;50772;51.482;-0.580;2022-08-25T07:53:03;8.45;;;7.00;;
64426;SDS011;50772;51.482;-0.580;2022-08-25T07:55:28;7.70;;;7.20;;
64426;SDS011;50772;51.482;-0.580;2022-08-25T07:57:54;7.82;;;6.57;;
64426;SDS011;50772;51.482;-0.580;2022-08-25T08:00:20;7.10;;;6.50;;
64426;SDS011;50772;51.482;-0.580;2022-08-25T08:02:45;7.38;;;6.78;;
64426;SDS011;50772;51.482;-0.580;2022-08-25T08:05:11;7.43;;;6.72;;
64426;SDS011;50772;51.482;-0.580;2022-08-25T08:07:36;7.93;;;7.07;;
64426;SDS011;50772;51.482;-0.580;2022-08-25T08:10:03;10.68;;;7.75;;
64426;SDS011;50772;51.482;-0.580;2022-08-25T08:12:28;9.15;;;7.75;;
64426;SDS011;50772;51.482;-0.580;2022-08-25T08:14:53;8.52;;;7.68;;
64426;SDS011;50772;51.482;-0.580;2022-08-25T08:17:19;7.50;;;6.90;;
64426;SDS011;50772;51.482;-0.580;2022-08-25T08:19:44;7.70;;;7.00;;
64426;SDS011;50772;51.482;-0.580;2022-08-25T08:22:09;6.87;;;6.33;;
64426;SDS011;50772;51.482;-0.580;2022-08-25T08:24:35;6.57;;;6.07;;
64426;SDS011;50772;51.482;-0.580;2022-08-25T08:27:04;6.22;;;5.72;;
64426;SDS011;50772;51.482;-0.580;2022-08-25T08:29:29;6.07;;;5.28;;
64426;SDS011;50772;51.482;-0.580;2022-08-25T08:31:54;5.83;;;5.30;;
64426;SDS011;50772;51.482;-0.580;2022-08-25T08:34:19;7.83;;;5.37;;
64426;SDS011;50772;51.482;-0.580;2022-08-25T08:36:44;7.00;;;5.60;;
64426;SDS011;50772;51.482;-0.580;2022-08-25T08:39:10;4.80;;;4.40;;
64426;SDS011;50772;51.482;-0.580;2022-08-25T08:47:04;5.30;;;4.90;;
64426;SDS011;50772;51.482;-0.580;2022-08-25T08:51:58;4.03;;;3.78;;
64426;SDS011;50772;51.482;-0.580;2022-08-25T08:54:24;3.97;;;3.67;;
64426;SDS011;50772;51.482;-0.580;2022-08-25T08:56:54;4.18;;;3.78;;
64426;SDS011;50772;51.482;-0.580;2022-08-25T08:59:30;5.25;;;3.92;;
64426;SDS011;50772;51.482;-0.580;2022-08-25T09:01:57;3.70;;;3.50;;
64426;SDS011;50772;51.482;-0.580;2022-08-25T09:06:49;4.05;;;3.67;;
64426;SDS011;50772;51.482;-0.580;2022-08-25T09:09:17;3.72;;;3.42;;
64426;SDS011;50772;51.482;-0.580;2022-08-25T09:11:52;3.70;;;3.40;;
64426;SDS011;50772;51.482;-0.580;2022-08-25T09:16:59;3.65;;;3.42;;
64426;SDS011;50772;51.482;-0.580;2022-08-25T09:21:55;4.60;;;3.30;;
64426;SDS011;50772;51.482;-0.580;2022-08-25T09:26:53;3.38;;;3.17;;
64426;SDS011;50772;51.482;-0.580;2022-08-25T09:29:23;3.33;;;3.03;;
64426;SDS011;50772;51.482;-0.580;2022-08-25T09:31:48;3.53;;;3.35;;
64426;SDS011;50772;51.482;-0.580;2022-08-25T09:34:18;2.83;;;2.60;;
64426;SDS011;50772;51.482;-0.580;2022-08-25T09:36:44;2.63;;;2.53;;
64426;SDS011;50772;51.482;-0.580;2022-08-25T09:39:12;2.90;;;2.80;;
64426;SDS011;50772;51.482;-0.580;2022-08-25T09:44:16;2.75;;;2.65;;
64426;SDS011;50772;51.482;-0.580;2022-08-25T09:46:41;3.92;;;3.25;;
64426;SDS011;50772;51.482;-0.580;2022-08-25T09:49:17;4.72;;;3.25;;
64426;SDS011;50772;51.482;-0.580;2022-08-25T09:51:43;3.20;;;3.00;;
64426;SDS011;50772;51.482;-0.580;2022-08-25T10:01:49;3.20;;;2.75;;
64426;SDS011;50772;51.482;-0.580;2022-08-25T10:04:14;2.42;;;2.33;;
64426;SDS011;50772;51.482;-0.580;2022-08-25T10:06:48;2.55;;;2.45;;
64426;SDS011;50772;51.482;-0.580;2022-08-25T10:09:22;2.40;;;2.30;;
64426;SDS011;50772;51.482;-0.580;2022-08-25T10:11:49;2.28;;;2.17;;
64426;SDS011;50772;51.482;-0.580;2022-08-25T10:16:45;3.45;;;2.33;;
64426;SDS011;50772;51.482;-0.580;2022-08-25T10:19:24;2.80;;;2.70;;
64426;SDS011;50772;51.482;-0.580;2022-08-25T10:22:06;2.85;;;2.65;;
64426;SDS011;50772;51.482;-0.580;2022-08-25T10:24:32;2.35;;;2.25;;
64426;SDS011;50772;51.482;-0.580;2022-08-25T10:27:41;3.85;;;2.10;;
64426;SDS011;50772;51.482;-0.580;2022-08-25T10:32:17;1.48;;;1.48;;
64426;SDS011;50772;51.482;-0.580;2022-08-25T10:34:47;2.03;;;1.92;;
64426;SDS011;50772;51.482;-0.580;2022-08-25T10:37:27;1.70;;;1.60;;
64426;SDS011;50772;51.482;-0.580;2022-08-25T10:40:07;2.05;;;1.95;;
64426;SDS011;50772;51.482;-0.580;2022-08-25T10:42:53;2.90;;;2.70;;
64426;SDS011;50772;51.482;-0.580;2022-08-25T10:45:23;2.65;;;2.55;;
64426;SDS011;50772;51.482;-0.580;2022-08-25T10:50:42;3.78;;;3.58;;
64426;SDS011;50772;51.482;-0.580;2022-08-25T10:58:36;3.75;;;3.47;;
64426;SDS011;50772;51.482;-0.580;2022-08-25T11:01:17;3.72;;;3.53;;
64426;SDS011;50772;51.482;-0.580;2022-08-25T11:03:48;3.40;;;3.17;;
64426;SDS011;50772;51.482;-0.580;2022-08-25T11:06:57;2.65;;;2.55;;
64426;SDS011;50772;51.482;-0.580;2022-08-25T11:09:04;2.25;;;2.15;;
64426;SDS011;50772;51.482;-0.580;2022-08-25T11:11:39;1.92;;;1.90;;
64426;SDS011;50772;51.482;-0.580;2022-08-25T11:14:10;1.63;;;1.63;;
64426;SDS011;50772;51.482;-0.580;2022-08-25T11:22:10;2.72;;;1.73;;
64426;SDS011;50772;51.482;-0.580;2022-08-25T11:24:57;2.08;;;1.80;;
64426;SDS011;50772;51.482;-0.580;2022-08-25T11:27:31;1.60;;;1.60;;
64426;SDS011;50772;51.482;-0.580;2022-08-25T11:30:00;1.70;;;1.60;;
64426;SDS011;50772;51.482;-0.580;2022-08-25T11:32:27;3.00;;;1.80;;
64426;SDS011;50772;51.482;-0.580;2022-08-25T11:37:26;1.55;;;1.45;;
64426;SDS011;50772;51.482;-0.580;2022-08-25T11:45:01;2.10;;;1.90;;
64426;SDS011;50772;51.482;-0.580;2022-08-25T11:47:40;2.30;;;2.10;;
64426;SDS011;50772;51.482;-0.580;2022-08-25T11:50:23;2.17;;;2.08;;
64426;SDS011;50772;51.482;-0.580;2022-08-25T11:52:50;2.03;;;1.92;;
64426;SDS011;50772;51.482;-0.580;2022-08-25T11:57:43;2.65;;;2.25;;
64426;SDS011;50772;51.482;-0.580;2022-08-25T12:00:10;2.05;;;1.95;;
64426;SDS011;50772;51.482;-0.580;2022-08-25T12:02:41;2.10;;;2.00;;
64426;SDS011;50772;51.482;-0.580;2022-08-25T12:13:45;2.05;;;1.90;;
64426;SDS011;50772;51.482;-0.580;2022-08-25T12:16:03;1.63;;;1.63;;
64426;SDS011;50772;51.482;-0.580;2022-08-25T12:23:33;1.70;;;1.60;;
64426;SDS011;50772;51.482;-0.580;2022-08-25T12:28:55;5.35;;;1.35;;
64426;SDS011;50772;51.482;-0.580;2022-08-25T12:31:35;1.23;;;1.23;;
64426;SDS011;50772;51.482;-0.580;2022-08-25T12:36:56;1.10;;;1.10;;
64426;SDS011;50772;51.482;-0.580;2022-08-25T12:39:22;2.35;;;1.30;;
64426;SDS011;50772;51.482;-0.580;2022-08-25T12:41:57;1.30;;;1.20;;
64426;SDS011;50772;51.482;-0.580;2022-08-25T12:49:34;1.20;;;1.20;;
64426;SDS011;50772;51.482;-0.580;2022-08-25T12:56:57;1.10;;;1.10;;
64426;SDS011;50772;51.482;-0.580;2022-08-25T12:59:31;1.17;;;1.17;;
64426;SDS011;50772;51.482;-0.580;2022-08-25T13:04:51;1.30;;;1.30;;
64426;SDS011;50772;51.482;-0.580;2022-08-25T13:09:56;1.90;;;1.80;;
64426;SDS011;50772;51.482;-0.580;2022-08-25T13:12:35;2.20;;;2.10;;
64426;SDS011;50772;51.482;-0.580;2022-08-25T13:15:03;1.83;;;1.83;;
64426;SDS011;50772;51.482;-0.580;2022-08-25T13:17:30;2.03;;;1.92;;
64426;SDS011;50772;51.482;-0.580;2022-08-25T13:22:39;2.28;;;2.17;;
64426;SDS011;50772;51.482;-0.580;2022-08-25T13:25:05;2.75;;;2.65;;
64426;SDS011;50772;51.482;-0.580;2022-08-25T13:27:31;2.85;;;2.70;;
64426;SDS011;50772;51.482;-0.580;2022-08-25T13:29:58;3.17;;;2.97;;
64426;SDS011;50772;51.482;-0.580;2022-08-25T13:32:28;3.22;;;3.13;;
64426;SDS011;50772;51.482;-0.580;2022-08-25T13:35:06;4.75;;;3.72;;
64426;SDS011;50772;51.482;-0.580;2022-08-25T13:37:32;4.32;;;3.83;;
64426;SDS011;50772;51.482;-0.580;2022-08-25T13:42:32;4.47;;;4.28;;
64426;SDS011;50772;51.482;-0.580;2022-08-25T13:44:57;5.67;;;4.67;;
64426;SDS011;50772;51.482;-0.580;2022-08-25T13:47:36;5.10;;;4.80;;
64426;SDS011;50772;51.482;-0.580;2022-08-25T13:50:20;4.60;;;4.40;;
64426;SDS011;50772;51.482;-0.580;2022-08-25T13:52:49;5.55;;;5.15;;
64426;SDS011;50772;51.482;-0.580;2022-08-25T13:57:40;4.20;;;4.00;;
64426;SDS011;50772;51.482;-0.580;2022-08-25T14:00:08;5.03;;;4.72;;
64426;SDS011;50772;51.482;-0.580;2022-08-25T14:02:43;4.47;;;4.28;;
64426;SDS011;50772;51.482;-0.580;2022-08-25T14:05:08;5.07;;;4.82;;
64426;SDS011;50772;51.482;-0.580;2022-08-25T14:07:34;4.82;;;4.63;;
64426;SDS011;50772;51.482;-0.580;2022-08-25T14:10:10;5.20;;;4.90;;
64426;SDS011;50772;51.482;-0.580;2022-08-25T14:13:11;4.97;;;4.78;;
64426;SDS011;50772;51.482;-0.580;2022-08-25T14:15:37;5.50;;;5.00;;
64426;SDS011;50772;51.482;-0.580;2022-08-25T14:18:08;5.05;;;4.70;;
64426;SDS011;50772;51.482;-0.580;2022-08-25T14:20:35;5.07;;;4.85;;
64426;SDS011;50772;51.482;-0.580;2022-08-25T14:23:10;5.45;;;5.05;;
64426;SDS011;50772;51.482;-0.580;2022-08-25T14:25:38;4.72;;;4.45;;
64426;SDS011;50772;51.482;-0.580;2022-08-25T14:28:04;5.50;;;5.20;;
64426;SDS011;50772;51.482;-0.580;2022-08-25T14:30:30;5.13;;;4.72;;
64426;SDS011;50772;51.482;-0.580;2022-08-25T14:32:57;4.65;;;4.45;;
64426;SDS011;50772;51.482;-0.580;2022-08-25T14:35:22;5.33;;;5.03;;
64426;SDS011;50772;51.482;-0.580;2022-08-25T14:37:48;5.50;;;5.13;;
64426;SDS011;50772;51.482;-0.580;2022-08-25T14:40:13;5.40;;;5.10;;
64426;SDS011;50772;51.482;-0.580;2022-08-25T14:42:43;5.00;;;4.80;;
64426;SDS011;50772;51.482;-0.580;2022-08-25T14:45:08;4.97;;;4.63;;
64426;SDS011;50772;51.482;-0.580;2022-08-25T14:47:34;5.10;;;4.80;;
64426;SDS011;50772;51.482;-0.580;2022-08-25T14:49:59;4.55;;;4.35;;
64426;SDS011;50772;51.482;-0.580;2022-08-25T14:52:25;5.03;;;4.68;;
64426;SDS011;50772;51.482;-0.580;2022-08-25T14:54:51;4.40;;;4.07;;
64426;SDS011;50772;51.482;-0.580;2022-08-25T14:57:16;4.00;;;3.80;;
64426;SDS011;50772;51.482;-0.580;2022-08-25T14:59:42;4.07;;;3.80;;
64426;SDS011;50772;51.482;-0.580;2022-08-25T15:02:07;5.90;;;4.10;;
64426;SDS011;50772;51.482;-0.580;2022-08-25T15:04:33;3.85;;;3.72;;
64426;SDS011;50772;51.482;-0.580;2022-08-25T15:06:59;4.22;;;4.00;;
64426;SDS011;50772;51.482;-0.580;2022-08-25T15:09:26;4.70;;;4.13;;
64426;SDS011;50772;51.482;-0.580;2022-08-25T15:11:52;4.63;;;4.30;;
64426;SDS011;50772;51.482;-0.580;2022-08-25T15:14:19;4.28;;;4.07;;
64426;SDS011;50772;51.482;-0.580;2022-08-25T15:16:50;5.13;;;4.07;;
64426;SDS011;50772;51.482;-0.580;2022-08-25T15:19:17;3.90;;;3.70;;
64426;SDS011;50772;51.482;-0.580;2022-08-25T15:21:42;4.43;;;4.15;;
64426;SDS011;50772;51.482;-0.580;2022-08-25T15:24:08;4.05;;;3.70;;
64426;SDS011;50772;51.482;-0.580;2022-08-25T15:26:36;4.07;;;3.78;;
64426;SDS011;50772;51.482;-0.580;2022-08-25T15:29:03;4.32;;;4.00;;
64426;SDS011;50772;51.482;-0.580;2022-08-25T15:31:29;4.87;;;3.90;;
64426;SDS011;50772;51.482;-0.580;2022-08-25T15:33:54;3.90;;;3.60;;
64426;SDS011;50772;51.482;-0.580;2022-08-25T15:36:20;3.83;;;3.53;;
64426;SDS011;50772;51.482;-0.580;2022-08-25T15:38:47;4.05;;;3.72;;
64426;SDS011;50772;51.482;-0.580;2022-08-25T15:41:12;3.85;;;3.55;;
64426;SDS011;50772;51.482;-0.580;2022-08-25T15:43:37;4.10;;;3.80;;
64426;SDS011;50772;51.482;-0.580;2022-08-25T15:46:03;5.15;;;4.65;;
64426;SDS011;50772;51.482;-0.580;2022-08-25T15:48:29;3.65;;;3.45;;
64426;SDS011;50772;51.482;-0.580;2022-08-25T15:50:54;3.67;;;3.47;;
64426;SDS011;50772;51.482;-0.580;2022-08-25T15:53:20;4.40;;;4.10;;
64426;SDS011;50772;51.482;-0.580;2022-08-25T15:55:46;3.67;;;3.47;;
64426;SDS011;50772;51.482;-0.580;2022-08-25T15:58:12;4.22;;;3.38;;
64426;SDS011;50772;51.482;-0.580;2022-08-25T16:00:37;5.77;;;3.37;;
64426;SDS011;50772;51.482;-0.580;2022-08-25T16:03:02;6.47;;;3.50;;
64426;SDS011;50772;51.482;-0.580;2022-08-25T16:05:27;3.60;;;3.30;;
64426;SDS011;50772;51.482;-0.580;2022-08-25T16:07:53;4.07;;;3.88;;
64426;SDS011;50772;51.482;-0.580;2022-08-25T16:10:18;4.00;;;3.80;;
64426;SDS011;50772;51.482;-0.580;2022-08-25T16:12:43;4.10;;;3.88;;
64426;SDS011;50772;51.482;-0.580;2022-08-25T16:15:09;5.07;;;4.70;;
64426;SDS011;50772;51.482;-0.580;2022-08-25T16:17:34;4.47;;;4.18;;
64426;SDS011;50772;51.482;-0.580;2022-08-25T16:20:00;4.50;;;4.10;;